sensor_id;sensor_type;location;lat;lon;timestamp;pressure;altitude;pressure_sealevel;temperature;humidity
37170;BME280;23062;13.952;100.608;2022-09-24T00:03:54;749.83;;;-142.63;86.47
37170;BME280;23062;13.952;100.608;2022-09-24T00:08:43;749.81;;;-142.63;86.27
37170;BME280;23062;13.952;100.608;2022-09-24T00:13:34;749.87;;;-142.63;86.07
37170;BME280;23062;13.952;100.608;2022-09-24T00:18:23;749.95;;;-142.63;85.85
37170;BME280;23062;13.952;100.608;2022-09-24T00:23:12;750.04;;;-142.63;85.70
37170;BME280;23062;13.952;100.608;2022-09-24T00:28:01;750.02;;;-142.63;85.46
37170;BME280;23062;13.952;100.608;2022-09-24T00:33:04;750.14;;;-142.63;86.20
37170;BME280;23062;13.952;100.608;2022-09-24T00:37:53;749.84;;;-142.63;84.61
37170;BME280;23062;13.952;100.608;2022-09-24T00:42:43;749.89;;;-142.63;83.56
37170;BME280;23062;13.952;100.608;2022-09-24T00:47:37;749.87;;;-142.63;82.53
37170;BME280;23062;13.952;100.608;2022-09-24T00:52:23;750.29;;;-142.63;84.82
37170;BME280;23062;13.952;100.608;2022-09-24T00:57:13;750.31;;;-142.63;84.77
37170;BME280;23062;13.952;100.608;2022-09-24T01:02:02;750.30;;;-142.63;85.27
37170;BME280;23062;13.952;100.608;2022-09-24T01:06:52;750.28;;;-142.63;84.87
37170;BME280;23062;13.952;100.608;2022-09-24T01:21:55;750.18;;;-142.63;86.74
37170;BME280;23062;13.952;100.608;2022-09-24T01:26:52;750.25;;;-142.63;87.50
37170;BME280;23062;13.952;100.608;2022-09-24T01:36:48;750.22;;;-142.63;87.58
37170;BME280;23062;13.952;100.608;2022-09-24T01:41:38;750.24;;;-142.63;87.58
37170;BME280;23062;13.952;100.608;2022-09-24T01:46:30;750.18;;;-142.63;86.97
37170;BME280;23062;13.952;100.608;2022-09-24T01:56:19;750.18;;;-142.63;86.73
37170;BME280;23062;13.952;100.608;2022-09-24T02:01:09;750.13;;;-142.63;87.18
37170;BME280;23062;13.952;100.608;2022-09-24T02:06:03;750.06;;;-142.63;86.78
37170;BME280;23062;13.952;100.608;2022-09-24T02:10:55;750.11;;;-142.63;87.40
37170;BME280;23062;13.952;100.608;2022-09-24T02:15:45;750.07;;;-142.63;87.30
37170;BME280;23062;13.952;100.608;2022-09-24T02:20:37;750.06;;;-142.63;87.97
37170;BME280;23062;13.952;100.608;2022-09-24T02:25:32;750.02;;;-142.63;88.03
37170;BME280;23062;13.952;100.608;2022-09-24T02:30:21;750.01;;;-142.63;88.24
37170;BME280;23062;13.952;100.608;2022-09-24T02:35:11;750.07;;;-142.63;88.17
37170;BME280;23062;13.952;100.608;2022-09-24T02:40:01;750.12;;;-142.63;88.24
37170;BME280;23062;13.952;100.608;2022-09-24T02:44:51;750.03;;;-142.63;88.44
37170;BME280;23062;13.952;100.608;2022-09-24T02:49:41;750.10;;;-142.63;88.25
37170;BME280;23062;13.952;100.608;2022-09-24T02:54:31;750.06;;;-142.63;88.22
37170;BME280;23062;13.952;100.608;2022-09-24T02:59:20;750.11;;;-142.63;87.94
37170;BME280;23062;13.952;100.608;2022-09-24T03:04:10;750.19;;;-142.63;88.81
37170;BME280;23062;13.952;100.608;2022-09-24T03:09:00;750.29;;;-142.63;88.40
37170;BME280;23062;13.952;100.608;2022-09-24T03:13:50;750.05;;;-142.63;86.78
37170;BME280;23062;13.952;100.608;2022-09-24T03:18:40;749.94;;;-142.63;85.52
37170;BME280;23062;13.952;100.608;2022-09-24T03:23:29;749.99;;;-142.63;85.86
37170;BME280;23062;13.952;100.608;2022-09-24T03:28:18;749.89;;;-142.63;85.45
37170;BME280;23062;13.952;100.608;2022-09-24T03:33:07;749.92;;;-142.63;85.72
37170;BME280;23062;13.952;100.608;2022-09-24T03:37:57;749.87;;;-142.63;85.83
37170;BME280;23062;13.952;100.608;2022-09-24T03:42:46;749.79;;;-142.63;85.95
37170;BME280;23062;13.952;100.608;2022-09-24T03:47:35;749.68;;;-142.63;85.80
37170;BME280;23062;13.952;100.608;2022-09-24T03:52:24;749.59;;;-142.63;85.46
37170;BME280;23062;13.952;100.608;2022-09-24T03:57:14;749.51;;;-142.63;85.24
37170;BME280;23062;13.952;100.608;2022-09-24T04:02:03;749.40;;;-142.63;85.10
37170;BME280;23062;13.952;100.608;2022-09-24T04:06:52;749.34;;;-142.63;85.08
37170;BME280;23062;13.952;100.608;2022-09-24T04:11:42;749.31;;;-142.63;85.49
37170;BME280;23062;13.952;100.608;2022-09-24T04:16:31;749.25;;;-142.63;85.29
37170;BME280;23062;13.952;100.608;2022-09-24T04:21:20;749.15;;;-142.63;84.94
37170;BME280;23062;13.952;100.608;2022-09-24T04:26:10;749.08;;;-142.63;84.66
37170;BME280;23062;13.952;100.608;2022-09-24T04:30:59;748.99;;;-142.63;84.79
37170;BME280;23062;13.952;100.608;2022-09-24T04:35:48;748.90;;;-142.63;84.63
37170;BME280;23062;13.952;100.608;2022-09-24T04:40:37;748.79;;;-142.63;84.33
37170;BME280;23062;13.952;100.608;2022-09-24T04:45:27;748.75;;;-142.63;83.75
37170;BME280;23062;13.952;100.608;2022-09-24T04:50:18;748.67;;;-142.63;83.32
37170;BME280;23062;13.952;100.608;2022-09-24T04:55:08;748.50;;;-142.63;83.06
37170;BME280;23062;13.952;100.608;2022-09-24T04:59:57;748.45;;;-142.63;82.94
37170;BME280;23062;13.952;100.608;2022-09-24T05:04:47;748.36;;;-142.63;83.37
37170;BME280;23062;13.952;100.608;2022-09-24T05:09:36;748.23;;;-142.63;81.18
37170;BME280;23062;13.952;100.608;2022-09-24T05:14:26;748.15;;;-142.63;81.71
37170;BME280;23062;13.952;100.608;2022-09-24T05:19:15;748.11;;;-142.63;81.32
37170;BME280;23062;13.952;100.608;2022-09-24T05:24:05;747.93;;;-142.63;80.32
37170;BME280;23062;13.952;100.608;2022-09-24T05:28:55;747.88;;;-142.63;80.31
37170;BME280;23062;13.952;100.608;2022-09-24T05:33:44;747.86;;;-142.63;80.31
37170;BME280;23062;13.952;100.608;2022-09-24T05:38:35;747.72;;;-142.63;80.23
37170;BME280;23062;13.952;100.608;2022-09-24T05:43:24;747.70;;;-142.63;80.96
37170;BME280;23062;13.952;100.608;2022-09-24T05:48:14;747.59;;;-142.63;80.89
37170;BME280;23062;13.952;100.608;2022-09-24T05:53:05;747.61;;;-142.63;81.29
37170;BME280;23062;13.952;100.608;2022-09-24T05:57:54;747.57;;;-142.63;80.46
37170;BME280;23062;13.952;100.608;2022-09-24T06:02:45;747.48;;;-142.63;80.18
37170;BME280;23062;13.952;100.608;2022-09-24T06:07:34;747.42;;;-142.63;80.47
37170;BME280;23062;13.952;100.608;2022-09-24T06:12:24;747.35;;;-142.63;80.38
37170;BME280;23062;13.952;100.608;2022-09-24T06:17:14;747.27;;;-142.63;81.87
37170;BME280;23062;13.952;100.608;2022-09-24T06:22:05;747.23;;;-142.63;82.70
37170;BME280;23062;13.952;100.608;2022-09-24T06:26:54;747.11;;;-142.63;82.58
37170;BME280;23062;13.952;100.608;2022-09-24T06:31:46;746.99;;;-142.63;82.85
37170;BME280;23062;13.952;100.608;2022-09-24T06:36:36;746.93;;;-142.63;82.77
37170;BME280;23062;13.952;100.608;2022-09-24T06:41:27;746.85;;;-142.63;82.90
37170;BME280;23062;13.952;100.608;2022-09-24T06:46:16;746.75;;;-142.63;82.95
37170;BME280;23062;13.952;100.608;2022-09-24T06:51:06;746.71;;;-142.63;83.22
37170;BME280;23062;13.952;100.608;2022-09-24T06:55:56;746.69;;;-142.63;83.03
37170;BME280;23062;13.952;100.608;2022-09-24T07:00:58;746.68;;;-142.63;82.93
37170;BME280;23062;13.952;100.608;2022-09-24T07:05:48;746.52;;;-142.63;82.54
37170;BME280;23062;13.952;100.608;2022-09-24T07:10:40;746.52;;;-142.63;83.71
37170;BME280;23062;13.952;100.608;2022-09-24T07:15:29;746.37;;;-142.63;82.28
37170;BME280;23062;13.952;100.608;2022-09-24T07:20:18;746.22;;;-142.63;83.15
37170;BME280;23062;13.952;100.608;2022-09-24T07:25:11;746.05;;;-142.63;82.56
37170;BME280;23062;13.952;100.608;2022-09-24T07:30:01;746.02;;;-142.63;81.10
37170;BME280;23062;13.952;100.608;2022-09-24T07:34:50;745.96;;;-142.63;81.22
37170;BME280;23062;13.952;100.608;2022-09-24T07:39:40;745.85;;;-142.63;80.88
37170;BME280;23062;13.952;100.608;2022-09-24T07:44:30;745.74;;;-142.63;80.76
37170;BME280;23062;13.952;100.608;2022-09-24T07:49:19;745.66;;;-142.63;80.09
37170;BME280;23062;13.952;100.608;2022-09-24T07:54:09;745.64;;;-142.63;79.36
37170;BME280;23062;13.952;100.608;2022-09-24T07:58:59;745.61;;;-142.63;79.11
37170;BME280;23062;13.952;100.608;2022-09-24T08:03:49;745.49;;;-142.63;78.77
37170;BME280;23062;13.952;100.608;2022-09-24T08:08:39;745.42;;;-142.63;78.88
37170;BME280;23062;13.952;100.608;2022-09-24T08:13:30;745.42;;;-142.63;78.99
37170;BME280;23062;13.952;100.608;2022-09-24T08:18:19;745.47;;;-142.63;78.83
37170;BME280;23062;13.952;100.608;2022-09-24T08:23:09;745.50;;;-142.63;78.88
37170;BME280;23062;13.952;100.608;2022-09-24T08:28:03;745.53;;;-142.63;79.29
37170;BME280;23062;13.952;100.608;2022-09-24T08:32:54;745.41;;;-142.63;77.94
37170;BME280;23062;13.952;100.608;2022-09-24T08:37:43;745.27;;;-142.63;77.80
37170;BME280;23062;13.952;100.608;2022-09-24T08:42:47;745.17;;;-142.63;77.27
37170;BME280;23062;13.952;100.608;2022-09-24T08:47:35;745.00;;;-142.63;75.30
37170;BME280;23062;13.952;100.608;2022-09-24T08:57:41;745.00;;;-142.63;73.97
37170;BME280;23062;13.952;100.608;2022-09-24T09:17:23;744.99;;;-142.63;73.82
37170;BME280;23062;13.952;100.608;2022-09-24T09:22:16;744.92;;;-142.63;73.52
37170;BME280;23062;13.952;100.608;2022-09-24T09:27:13;744.93;;;-142.63;73.59
37170;BME280;23062;13.952;100.608;2022-09-24T09:32:15;744.90;;;-142.63;72.89
37170;BME280;23062;13.952;100.608;2022-09-24T09:42:31;744.96;;;-142.63;73.44
37170;BME280;23062;13.952;100.608;2022-09-24T09:47:42;744.99;;;-142.63;73.32
37170;BME280;23062;13.952;100.608;2022-09-24T09:52:30;744.95;;;-142.63;73.32
37170;BME280;23062;13.952;100.608;2022-09-24T09:57:24;744.98;;;-142.63;72.94
37170;BME280;23062;13.952;100.608;2022-09-24T10:02:32;744.94;;;-142.63;72.30
37170;BME280;23062;13.952;100.608;2022-09-24T10:07:20;745.04;;;-142.63;72.28
37170;BME280;23062;13.952;100.608;2022-09-24T10:12:17;745.11;;;-142.63;72.56
37170;BME280;23062;13.952;100.608;2022-09-24T10:17:12;745.23;;;-142.63;72.61
37170;BME280;23062;13.952;100.608;2022-09-24T10:22:12;745.32;;;-142.63;72.34
37170;BME280;23062;13.952;100.608;2022-09-24T10:26:57;745.33;;;-142.63;72.48
37170;BME280;23062;13.952;100.608;2022-09-24T10:31:48;745.35;;;-142.63;72.44
37170;BME280;23062;13.952;100.608;2022-09-24T10:36:37;745.48;;;-142.63;72.87
37170;BME280;23062;13.952;100.608;2022-09-24T10:41:28;745.59;;;-142.63;72.98
37170;BME280;23062;13.952;100.608;2022-09-24T10:51:38;745.75;;;-142.63;71.72
37170;BME280;23062;13.952;100.608;2022-09-24T10:56:31;745.87;;;-142.63;71.68
37170;BME280;23062;13.952;100.608;2022-09-24T11:12:02;746.20;;;-142.63;70.69
37170;BME280;23062;13.952;100.608;2022-09-24T11:17:19;746.24;;;-142.63;70.44
37170;BME280;23062;13.952;100.608;2022-09-24T11:22:10;746.31;;;-142.63;70.54
37170;BME280;23062;13.952;100.608;2022-09-24T11:32:30;746.50;;;-142.63;70.30
37170;BME280;23062;13.952;100.608;2022-09-24T11:42:25;746.56;;;-142.63;70.55
37170;BME280;23062;13.952;100.608;2022-09-24T11:47:43;746.48;;;-142.63;70.66
37170;BME280;23062;13.952;100.608;2022-09-24T11:57:56;746.46;;;-142.63;71.51
37170;BME280;23062;13.952;100.608;2022-09-24T12:02:52;746.57;;;-142.63;71.99
37170;BME280;23062;13.952;100.608;2022-09-24T12:08:01;746.68;;;-142.63;72.51
37170;BME280;23062;13.952;100.608;2022-09-24T12:12:52;746.66;;;-142.63;73.00
37170;BME280;23062;13.952;100.608;2022-09-24T12:18:00;746.72;;;-142.63;73.27
37170;BME280;23062;13.952;100.608;2022-09-24T12:22:47;746.80;;;-142.63;73.29
37170;BME280;23062;13.952;100.608;2022-09-24T12:27:37;746.84;;;-142.63;73.41
37170;BME280;23062;13.952;100.608;2022-09-24T12:32:46;746.75;;;-142.63;73.08
37170;BME280;23062;13.952;100.608;2022-09-24T12:37:45;746.69;;;-142.63;73.29
37170;BME280;23062;13.952;100.608;2022-09-24T12:42:38;746.77;;;-142.63;73.86
37170;BME280;23062;13.952;100.608;2022-09-24T12:47:28;746.86;;;-142.63;74.58
37170;BME280;23062;13.952;100.608;2022-09-24T12:52:38;746.72;;;-142.63;74.24
37170;BME280;23062;13.952;100.608;2022-09-24T13:02:19;746.78;;;-142.63;75.23
37170;BME280;23062;13.952;100.608;2022-09-24T13:07:33;746.77;;;-142.63;73.72
37170;BME280;23062;13.952;100.608;2022-09-24T13:12:30;746.77;;;-142.63;74.59
37170;BME280;23062;13.952;100.608;2022-09-24T13:17:25;746.83;;;-142.63;74.90
37170;BME280;23062;13.952;100.608;2022-09-24T13:22:26;746.97;;;-142.63;75.17
37170;BME280;23062;13.952;100.608;2022-09-24T13:27:22;747.03;;;-142.63;75.12
37170;BME280;23062;13.952;100.608;2022-09-24T13:32:14;747.12;;;-142.63;75.47
37170;BME280;23062;13.952;100.608;2022-09-24T13:37:11;747.27;;;-142.63;75.83
37170;BME280;23062;13.952;100.608;2022-09-24T13:47:20;747.47;;;-142.63;76.34
37170;BME280;23062;13.952;100.608;2022-09-24T13:57:22;747.65;;;-142.63;76.77
37170;BME280;23062;13.952;100.608;2022-09-24T14:02:24;747.75;;;-142.63;76.81
37170;BME280;23062;13.952;100.608;2022-09-24T14:07:15;747.90;;;-142.63;77.14
37170;BME280;23062;13.952;100.608;2022-09-24T14:12:14;748.02;;;-142.63;77.14
37170;BME280;23062;13.952;100.608;2022-09-24T14:17:10;748.12;;;-142.63;77.50
37170;BME280;23062;13.952;100.608;2022-09-24T14:21:59;748.12;;;-142.63;77.58
37170;BME280;23062;13.952;100.608;2022-09-24T14:31:49;748.00;;;-142.63;77.98
37170;BME280;23062;13.952;100.608;2022-09-24T14:36:39;748.04;;;-142.63;78.15
37170;BME280;23062;13.952;100.608;2022-09-24T14:41:33;748.12;;;-142.63;78.37
37170;BME280;23062;13.952;100.608;2022-09-24T14:46:36;748.11;;;-142.63;78.49
37170;BME280;23062;13.952;100.608;2022-09-24T14:51:28;748.16;;;-142.63;78.71
37170;BME280;23062;13.952;100.608;2022-09-24T14:56:31;748.22;;;-142.63;78.81
37170;BME280;23062;13.952;100.608;2022-09-24T15:01:21;748.23;;;-142.63;79.00
37170;BME280;23062;13.952;100.608;2022-09-24T15:06:17;748.29;;;-142.63;79.29
37170;BME280;23062;13.952;100.608;2022-09-24T15:11:06;748.26;;;-142.63;79.58
37170;BME280;23062;13.952;100.608;2022-09-24T15:21:07;748.41;;;-142.63;80.60
37170;BME280;23062;13.952;100.608;2022-09-24T15:25:58;748.41;;;-142.63;80.67
37170;BME280;23062;13.952;100.608;2022-09-24T15:30:47;748.41;;;-142.63;80.80
37170;BME280;23062;13.952;100.608;2022-09-24T15:35:36;748.34;;;-142.63;80.74
37170;BME280;23062;13.952;100.608;2022-09-24T15:40:27;748.26;;;-142.63;80.20
37170;BME280;23062;13.952;100.608;2022-09-24T15:45:19;748.35;;;-142.63;80.40
37170;BME280;23062;13.952;100.608;2022-09-24T15:50:10;748.29;;;-142.63;80.65
37170;BME280;23062;13.952;100.608;2022-09-24T15:55:00;748.16;;;-142.63;79.77
37170;BME280;23062;13.952;100.608;2022-09-24T15:59:51;748.10;;;-142.63;79.55
37170;BME280;23062;13.952;100.608;2022-09-24T16:04:40;748.14;;;-142.63;79.92
37170;BME280;23062;13.952;100.608;2022-09-24T16:09:30;748.15;;;-142.63;79.53
37170;BME280;23062;13.952;100.608;2022-09-24T16:14:20;748.24;;;-142.63;80.16
37170;BME280;23062;13.952;100.608;2022-09-24T16:19:09;748.31;;;-142.63;80.67
37170;BME280;23062;13.952;100.608;2022-09-24T16:23:59;748.24;;;-142.63;79.16
37170;BME280;23062;13.952;100.608;2022-09-24T16:28:48;748.20;;;-142.63;79.86
37170;BME280;23062;13.952;100.608;2022-09-24T16:33:38;748.23;;;-142.63;79.76
37170;BME280;23062;13.952;100.608;2022-09-24T16:38:27;748.41;;;-142.63;79.83
37170;BME280;23062;13.952;100.608;2022-09-24T16:43:17;748.47;;;-142.63;79.94
37170;BME280;23062;13.952;100.608;2022-09-24T16:48:06;748.47;;;-142.63;80.16
37170;BME280;23062;13.952;100.608;2022-09-24T16:52:55;748.48;;;-142.63;80.54
37170;BME280;23062;13.952;100.608;2022-09-24T16:57:44;748.57;;;-142.63;80.77
37170;BME280;23062;13.952;100.608;2022-09-24T17:02:33;748.49;;;-142.63;80.33
37170;BME280;23062;13.952;100.608;2022-09-24T17:07:23;748.47;;;-142.63;80.18
37170;BME280;23062;13.952;100.608;2022-09-24T17:12:13;748.39;;;-142.63;79.96
37170;BME280;23062;13.952;100.608;2022-09-24T17:17:03;748.32;;;-142.63;79.52
37170;BME280;23062;13.952;100.608;2022-09-24T17:21:52;748.29;;;-142.63;79.40
37170;BME280;23062;13.952;100.608;2022-09-24T17:26:41;748.27;;;-142.63;78.62
37170;BME280;23062;13.952;100.608;2022-09-24T17:31:31;748.40;;;-142.63;79.16
37170;BME280;23062;13.952;100.608;2022-09-24T17:36:20;748.30;;;-142.63;78.53
37170;BME280;23062;13.952;100.608;2022-09-24T17:41:13;748.30;;;-142.63;78.29
37170;BME280;23062;13.952;100.608;2022-09-24T17:46:06;748.21;;;-142.63;78.25
37170;BME280;23062;13.952;100.608;2022-09-24T17:51:05;748.02;;;-142.63;77.83
37170;BME280;23062;13.952;100.608;2022-09-24T17:55:54;748.08;;;-142.63;77.71
37170;BME280;23062;13.952;100.608;2022-09-24T18:00:44;748.13;;;-142.63;77.74
37170;BME280;23062;13.952;100.608;2022-09-24T18:05:33;748.13;;;-142.63;78.33
37170;BME280;23062;13.952;100.608;2022-09-24T18:10:23;748.12;;;-142.63;78.87
37170;BME280;23062;13.952;100.608;2022-09-24T18:15:12;748.00;;;-142.63;78.67
37170;BME280;23062;13.952;100.608;2022-09-24T18:20:01;748.02;;;-142.63;78.99
37170;BME280;23062;13.952;100.608;2022-09-24T18:24:50;748.08;;;-142.63;79.14
37170;BME280;23062;13.952;100.608;2022-09-24T18:29:41;748.12;;;-142.63;79.39
37170;BME280;23062;13.952;100.608;2022-09-24T18:34:31;748.09;;;-142.63;79.32
37170;BME280;23062;13.952;100.608;2022-09-24T18:39:20;748.08;;;-142.63;79.16
37170;BME280;23062;13.952;100.608;2022-09-24T18:44:10;748.08;;;-142.63;79.57
37170;BME280;23062;13.952;100.608;2022-09-24T18:49:00;748.10;;;-142.63;79.50
37170;BME280;23062;13.952;100.608;2022-09-24T18:53:57;748.06;;;-142.63;79.28
37170;BME280;23062;13.952;100.608;2022-09-24T18:58:46;748.01;;;-142.63;79.31
37170;BME280;23062;13.952;100.608;2022-09-24T19:03:36;747.96;;;-142.63;79.24
37170;BME280;23062;13.952;100.608;2022-09-24T19:08:26;747.90;;;-142.63;79.40
37170;BME280;23062;13.952;100.608;2022-09-24T19:13:19;747.84;;;-142.63;79.40
37170;BME280;23062;13.952;100.608;2022-09-24T19:18:11;747.78;;;-142.63;79.68
37170;BME280;23062;13.952;100.608;2022-09-24T19:23:01;747.72;;;-142.63;79.85
37170;BME280;23062;13.952;100.608;2022-09-24T19:27:50;747.72;;;-142.63;80.12
37170;BME280;23062;13.952;100.608;2022-09-24T19:32:39;747.72;;;-142.63;80.31
37170;BME280;23062;13.952;100.608;2022-09-24T19:37:30;747.65;;;-142.63;80.49
37170;BME280;23062;13.952;100.608;2022-09-24T19:42:21;747.62;;;-142.63;80.75
37170;BME280;23062;13.952;100.608;2022-09-24T19:47:10;747.63;;;-142.63;81.05
37170;BME280;23062;13.952;100.608;2022-09-24T19:51:59;747.59;;;-142.63;80.96
37170;BME280;23062;13.952;100.608;2022-09-24T19:56:50;747.57;;;-142.63;81.01
37170;BME280;23062;13.952;100.608;2022-09-24T20:01:41;747.56;;;-142.63;81.06
37170;BME280;23062;13.952;100.608;2022-09-24T20:06:32;747.62;;;-142.63;81.20
37170;BME280;23062;13.952;100.608;2022-09-24T20:11:24;747.60;;;-142.63;81.29
37170;BME280;23062;13.952;100.608;2022-09-24T20:16:16;747.56;;;-142.63;81.42
37170;BME280;23062;13.952;100.608;2022-09-24T20:21:07;747.54;;;-142.63;81.55
37170;BME280;23062;13.952;100.608;2022-09-24T20:25:58;747.61;;;-142.63;81.62
37170;BME280;23062;13.952;100.608;2022-09-24T20:31:15;747.55;;;-142.63;81.36
37170;BME280;23062;13.952;100.608;2022-09-24T20:36:06;747.62;;;-142.63;81.42
37170;BME280;23062;13.952;100.608;2022-09-24T20:40:57;747.62;;;-142.63;81.14
37170;BME280;23062;13.952;100.608;2022-09-24T20:45:46;747.68;;;-142.63;81.40
37170;BME280;23062;13.952;100.608;2022-09-24T20:50:35;747.70;;;-142.63;81.19
37170;BME280;23062;13.952;100.608;2022-09-24T20:55:24;747.79;;;-142.63;81.44
37170;BME280;23062;13.952;100.608;2022-09-24T21:00:14;747.78;;;-142.63;81.52
37170;BME280;23062;13.952;100.608;2022-09-24T21:05:04;747.83;;;-142.63;81.94
37170;BME280;23062;13.952;100.608;2022-09-24T21:09:54;747.75;;;-142.63;81.71
37170;BME280;23062;13.952;100.608;2022-09-24T21:14:44;747.75;;;-142.63;81.79
37170;BME280;23062;13.952;100.608;2022-09-24T21:19:35;747.77;;;-142.63;81.81
37170;BME280;23062;13.952;100.608;2022-09-24T21:24:24;747.73;;;-142.63;81.80
37170;BME280;23062;13.952;100.608;2022-09-24T21:29:17;747.73;;;-142.63;81.36
37170;BME280;23062;13.952;100.608;2022-09-24T21:34:09;747.73;;;-142.63;81.39
37170;BME280;23062;13.952;100.608;2022-09-24T21:39:00;747.84;;;-142.63;81.54
37170;BME280;23062;13.952;100.608;2022-09-24T21:43:50;747.79;;;-142.63;82.38
37170;BME280;23062;13.952;100.608;2022-09-24T21:48:40;747.85;;;-142.63;82.72
37170;BME280;23062;13.952;100.608;2022-09-24T21:53:29;747.94;;;-142.63;82.79
37170;BME280;23062;13.952;100.608;2022-09-24T21:58:19;748.05;;;-142.63;82.84
37170;BME280;23062;13.952;100.608;2022-09-24T22:03:09;748.02;;;-142.63;83.13
37170;BME280;23062;13.952;100.608;2022-09-24T22:08:01;748.01;;;-142.63;83.60
37170;BME280;23062;13.952;100.608;2022-09-24T22:12:51;748.06;;;-142.63;83.90
37170;BME280;23062;13.952;100.608;2022-09-24T22:17:40;748.09;;;-142.63;83.73
37170;BME280;23062;13.952;100.608;2022-09-24T22:22:34;748.12;;;-142.63;83.62
37170;BME280;23062;13.952;100.608;2022-09-24T22:27:23;748.18;;;-142.63;83.85
37170;BME280;23062;13.952;100.608;2022-09-24T22:37:40;748.19;;;-142.63;83.93
37170;BME280;23062;13.952;100.608;2022-09-24T22:42:29;748.22;;;-142.63;83.78
37170;BME280;23062;13.952;100.608;2022-09-24T22:47:18;748.30;;;-142.63;84.35
37170;BME280;23062;13.952;100.608;2022-09-24T22:52:08;748.24;;;-142.63;84.70
37170;BME280;23062;13.952;100.608;2022-09-24T22:56:57;748.22;;;-142.63;84.71
37170;BME280;23062;13.952;100.608;2022-09-24T23:01:46;748.28;;;-142.63;84.92
37170;BME280;23062;13.952;100.608;2022-09-24T23:06:35;748.40;;;-142.63;85.32
37170;BME280;23062;13.952;100.608;2022-09-24T23:11:27;748.34;;;-142.63;84.66
37170;BME280;23062;13.952;100.608;2022-09-24T23:16:22;748.41;;;-142.63;85.03
37170;BME280;23062;13.952;100.608;2022-09-24T23:21:09;748.24;;;-142.63;84.13
37170;BME280;23062;13.952;100.608;2022-09-24T23:26:09;748.12;;;-142.63;83.60
37170;BME280;23062;13.952;100.608;2022-09-24T23:30:58;748.18;;;-142.63;83.86
37170;BME280;23062;13.952;100.608;2022-09-24T23:35:52;748.35;;;-142.63;84.41
37170;BME280;23062;13.952;100.608;2022-09-24T23:40:41;748.38;;;-142.63;84.06
37170;BME280;23062;13.952;100.608;2022-09-24T23:45:31;748.56;;;-142.63;84.10
37170;BME280;23062;13.952;100.608;2022-09-24T23:50:19;748.96;;;-142.63;87.74
37170;BME280;23062;13.952;100.608;2022-09-24T23:55:08;749.30;;;-142.63;88.30
37170;BME280;23062;13.952;100.608;2022-09-24T23:59:58;749.59;;;-142.63;88.31
